Time;durP1;ratioP1;P1;durP2;ratioP2;P2;SDS_P1;SDS_P2;PMS_P1;PMS_P2;Temp;Humidity;BMP_temperature;BMP_pressure;BME280_temperature;BME280_humidity;BME280_pressure;Samples;Min_cycle;Max_cycle;Signal;HPM_P1;HPM_P2
2023/08/08 00:01:06;;;;;;;97.88;82.53;;;27.50;99.90;;;;;;5053156;28;20499;-64
2023/08/08 00:03:32;;;;;;;88.68;69.13;;;27.50;99.90;;;;;;5053086;28;20021;-67
2023/08/08 00:05:59;;;;;;;92.57;74.10;;;27.50;99.90;;;;;;5052854;28;20033;-65
2023/08/08 00:08:25;;;;;;;94.32;77.65;;;27.40;99.90;;;;;;5052794;28;20041;-64
2023/08/08 00:10:52;;;;;;;92.93;67.35;;;27.50;99.90;;;;;;5052865;28;20115;-67
2023/08/08 00:13:19;;;;;;;162.23;146.13;;;27.50;99.90;;;;;;5052876;28;20096;-63
2023/08/08 00:15:45;;;;;;;175.40;158.10;;;27.50;99.90;;;;;;5052762;28;20028;-65
2023/08/08 00:18:12;;;;;;;190.52;172.50;;;27.50;99.90;;;;;;5053061;28;20472;-65
2023/08/08 00:20:38;;;;;;;204.02;183.23;;;27.50;99.90;;;;;;5052901;28;20039;-64
2023/08/08 00:23:05;;;;;;;166.65;149.52;;;27.50;99.90;;;;;;5053044;28;20379;-66
2023/08/08 00:25:31;;;;;;;146.38;131.07;;;27.60;99.90;;;;;;5052796;28;20040;-65
2023/08/08 00:27:58;;;;;;;195.55;149.77;;;27.50;99.90;;;;;;5052767;28;20103;-66
2023/08/08 00:30:24;;;;;;;92.40;66.07;;;27.60;99.90;;;;;;5052677;28;20141;-64
2023/08/08 00:32:51;;;;;;;95.32;60.95;;;27.60;99.90;;;;;;5052754;28;20455;-65
2023/08/08 00:35:17;;;;;;;91.07;60.47;;;27.60;99.90;;;;;;5052784;28;20048;-64
2023/08/08 00:37:44;;;;;;;87.10;58.88;;;27.70;99.90;;;;;;5052556;28;20029;-66
2023/08/08 00:40:11;;;;;;;88.72;61.30;;;27.80;99.90;;;;;;5052586;28;20029;-64
2023/08/08 00:42:37;;;;;;;90.45;59.80;;;27.80;99.90;;;;;;5052590;28;20399;-64
2023/08/08 00:45:04;;;;;;;92.13;62.58;;;27.90;99.90;;;;;;5055509;28;20490;-67
2023/08/08 00:47:32;;;;;;;132.65;119.18;;;27.90;99.90;;;;;;5056224;28;20029;-65
2023/08/08 00:50:00;;;;;;;145.88;131.05;;;27.90;99.90;;;;;;5056087;28;20170;-65
2023/08/08 00:52:27;;;;;;;82.22;56.78;;;28.00;99.90;;;;;;5056200;28;20025;-64
2023/08/08 01:13:02;;;;;;;94.60;67.15;;;27.90;99.90;;;;;;5091595;27;20431;-67
2023/08/08 01:15:35;;;;;;;209.95;134.75;;;27.90;99.90;;;;;;5090842;28;20024;-65
2023/08/08 01:18:05;;;;;;;113.00;72.38;;;28.00;99.90;;;;;;5090987;28;20047;-64
2023/08/08 01:20:33;;;;;;;134.57;92.13;;;28.20;99.90;;;;;;5090889;28;20451;-64
2023/08/08 01:23:14;;;;;;;127.45;83.88;;;28.30;99.90;;;;;;5090766;28;20370;-65
2023/08/08 01:25:41;;;;;;;263.00;168.40;;;28.50;99.90;;;;;;5091019;28;20361;-64
2023/08/08 01:28:08;;;;;;;77.75;54.28;;;28.60;99.90;;;;;;5090655;28;20108;-64
2023/08/08 01:30:35;;;;;;;155.32;112.03;;;28.70;99.90;;;;;;5090486;28;20024;-64
2023/08/08 01:33:03;;;;;;;98.60;63.90;;;28.70;99.90;;;;;;5090742;28;20020;-64
2023/08/08 01:35:32;;;;;;;64.82;40.13;;;28.80;99.90;;;;;;5090803;28;20025;-64
2023/08/08 01:38:11;;;;;;;59.50;37.00;;;28.80;99.90;;;;;;5090432;28;20024;-63
2023/08/08 01:40:41;;;;;;;59.42;34.80;;;28.80;99.90;;;;;;5090376;28;20021;-64
2023/08/08 01:43:08;;;;;;;59.67;37.53;;;28.90;99.90;;;;;;5090462;28;20031;-64
2023/08/08 01:45:36;;;;;;;52.03;35.50;;;29.00;99.90;;;;;;5090365;28;20052;-64
2023/08/08 01:48:08;;;;;;;60.70;36.50;;;29.00;99.90;;;;;;5090550;28;20020;-63
2023/08/08 01:50:34;;;;;;;69.57;43.42;;;29.10;99.90;;;;;;5090470;28;20035;-64
2023/08/08 01:53:01;;;;;;;114.95;71.13;;;29.20;99.90;;;;;;5090256;28;20052;-66
2023/08/08 01:55:28;;;;;;;105.95;68.68;;;29.30;99.90;;;;;;5090576;28;20158;-63
2023/08/08 01:57:54;;;;;;;69.68;44.55;;;29.40;99.90;;;;;;5090265;28;20035;-64
2023/08/08 02:00:21;;;;;;;47.55;31.00;;;29.50;99.90;;;;;;5090094;28;20024;-64
2023/08/08 02:02:47;;;;;;;38.70;24.90;;;29.50;99.90;;;;;;5089878;28;20024;-65
2023/08/08 02:05:14;;;;;;;47.53;26.85;;;29.50;99.90;;;;;;5089955;28;20032;-65
2023/08/08 02:07:41;;;;;;;38.63;23.42;;;29.50;99.90;;;;;;5089839;28;20030;-64
2023/08/08 02:10:07;;;;;;;37.55;22.05;;;29.60;99.90;;;;;;5089712;28;20035;-65
2023/08/08 02:12:34;;;;;;;60.63;42.47;;;29.60;99.90;;;;;;5089684;28;20048;-64
2023/08/08 02:15:00;;;;;;;138.90;83.57;;;29.70;99.90;;;;;;5089743;28;20052;-65
2023/08/08 02:17:27;;;;;;;51.35;32.25;;;29.70;99.90;;;;;;5089631;28;20465;-64
2023/08/08 02:19:54;;;;;;;62.40;42.30;;;29.80;99.90;;;;;;5088490;28;20419;-65
2023/08/08 02:22:20;;;;;;;59.28;35.75;;;29.80;99.90;;;;;;5086705;28;20028;-65
2023/08/08 02:24:47;;;;;;;59.88;31.65;;;29.90;99.90;;;;;;5076035;28;20035;-64
2023/08/08 02:27:14;;;;;;;38.60;24.27;;;29.90;99.90;;;;;;5076260;28;20160;-64
2023/08/08 02:29:40;;;;;;;40.72;23.08;;;29.90;99.90;;;;;;5074231;28;20028;-64
2023/08/08 02:32:07;;;;;;;48.03;27.90;;;29.90;99.90;;;;;;5063731;28;20071;-64
2023/08/08 02:34:34;;;;;;;54.20;35.10;;;29.90;99.90;;;;;;5055872;28;20025;-64
2023/08/08 02:37:00;;;;;;;48.03;24.75;;;29.80;99.90;;;;;;5073766;28;20381;-64
2023/08/08 02:39:27;;;;;;;53.58;28.38;;;29.80;99.90;;;;;;5060290;28;20044;-64
2023/08/08 02:41:53;;;;;;;59.20;33.50;;;29.80;99.90;;;;;;5055633;28;20104;-64
2023/08/08 02:44:20;;;;;;;43.78;22.63;;;29.90;99.90;;;;;;5055739;28;20028;-64
2023/08/08 02:46:46;;;;;;;41.63;20.63;;;29.90;99.90;;;;;;5062470;28;20016;-64
2023/08/08 02:49:12;;;;;;;31.67;17.00;;;30.10;99.90;;;;;;5075618;28;20082;-64
2023/08/08 02:51:39;;;;;;;31.45;17.65;;;30.20;99.90;;;;;;5075594;28;20104;-64
2023/08/08 02:54:06;;;;;;;36.70;20.50;;;30.20;99.90;;;;;;5068730;28;20032;-65
2023/08/08 02:56:32;;;;;;;38.55;24.80;;;30.30;99.90;;;;;;5055515;28;20362;-64
2023/08/08 02:58:58;;;;;;;30.25;19.02;;;30.40;99.90;;;;;;5055769;28;20061;-64
2023/08/08 03:01:25;;;;;;;34.22;18.15;;;30.60;99.90;;;;;;5055348;28;20021;-64
2023/08/08 03:03:52;;;;;;;30.80;18.35;;;30.50;99.90;;;;;;5055541;28;20493;-66
2023/08/08 03:06:18;;;;;;;37.10;20.75;;;30.50;99.90;;;;;;5055340;28;20071;-63
2023/08/08 03:08:45;;;;;;;32.85;18.92;;;30.50;99.90;;;;;;5057466;28;20031;-64
2023/08/08 03:11:11;;;;;;;40.75;20.77;;;30.50;99.90;;;;;;5061180;28;20033;-64
2023/08/08 03:13:38;;;;;;;41.88;23.13;;;30.50;99.90;;;;;;5065669;28;20029;-65
2023/08/08 03:16:05;;;;;;;41.13;21.73;;;30.50;99.90;;;;;;5058464;28;20464;-65
2023/08/08 03:18:31;;;;;;;36.28;22.48;;;30.40;99.90;;;;;;5055055;28;20486;-65
2023/08/08 03:20:58;;;;;;;38.85;22.17;;;30.40;99.90;;;;;;5055201;28;20117;-65
2023/08/08 03:23:24;;;;;;;35.53;20.33;;;30.40;99.90;;;;;;5055083;28;20035;-66
2023/08/08 03:25:51;;;;;;;28.08;16.23;;;30.40;99.90;;;;;;5054902;28;20113;-68
2023/08/08 03:28:17;;;;;;;33.03;17.15;;;30.60;99.90;;;;;;5054899;28;20048;-66
2023/08/08 03:30:44;;;;;;;29.40;17.85;;;30.70;99.90;;;;;;5054800;28;20116;-66
2023/08/08 03:33:10;;;;;;;26.02;14.55;;;30.80;99.90;;;;;;5054835;28;20030;-66
2023/08/08 03:35:37;;;;;;;28.63;16.15;;;31.00;99.90;;;;;;5054458;28;20025;-66
2023/08/08 03:38:03;;;;;;;27.88;15.45;;;31.00;99.90;;;;;;5059452;28;20025;-66
2023/08/08 03:40:31;;;;;;;24.13;13.90;;;31.20;99.90;;;;;;5072226;28;20429;-66
2023/08/08 03:42:57;;;;;;;24.83;14.38;;;31.30;99.90;;;;;;5064956;28;20057;-66
2023/08/08 03:45:24;;;;;;;25.95;13.50;;;31.40;99.90;;;;;;5065019;28;20029;-66
2023/08/08 03:47:51;;;;;;;22.65;13.15;;;31.50;99.90;;;;;;5065821;28;20354;-67
2023/08/08 03:50:17;;;;;;;23.77;14.20;;;31.60;99.90;;;;;;5073406;28;20418;-67
2023/08/08 03:52:44;;;;;;;26.75;13.70;;;31.60;99.90;;;;;;5068515;28;20072;-66
2023/08/08 03:55:11;;;;;;;23.65;13.23;;;31.50;99.90;;;;;;5065327;28;20012;-67
2023/08/08 03:57:37;;;;;;;21.90;12.48;;;31.40;99.90;;;;;;5063490;28;20481;-66
2023/08/08 04:00:05;;;;;;;25.02;15.27;;;31.40;99.90;;;;;;5063277;28;20427;-66
2023/08/08 04:02:31;;;;;;;28.30;14.57;;;31.30;99.90;;;;;;5064887;28;20377;-65
2023/08/08 04:04:58;;;;;;;21.08;13.25;;;31.30;99.90;;;;;;5063338;28;20024;-68
2023/08/08 04:07:24;;;;;;;20.42;12.10;;;31.30;99.90;;;;;;5063187;28;20073;-66
2023/08/08 04:09:51;;;;;;;37.20;13.23;;;31.20;99.90;;;;;;5064779;28;20020;-65
2023/08/08 04:12:17;;;;;;;23.92;12.52;;;31.10;99.90;;;;;;5063291;28;20037;-66
2023/08/08 04:14:44;;;;;;;26.63;11.52;;;31.10;99.90;;;;;;5063361;28;20146;-65
2023/08/08 04:17:10;;;;;;;16.92;11.43;;;31.10;99.90;;;;;;5064833;28;20350;-66
2023/08/08 04:19:37;;;;;;;22.08;10.93;;;31.10;99.90;;;;;;5063298;28;20025;-66
2023/08/08 04:22:03;;;;;;;24.00;14.15;;;31.10;99.90;;;;;;5062950;28;20461;-66
2023/08/08 04:24:30;;;;;;;24.10;13.27;;;31.20;99.90;;;;;;5064524;28;20021;-66
2023/08/08 04:26:56;;;;;;;21.38;12.52;;;31.20;99.90;;;;;;5063073;28;20017;-66
2023/08/08 04:29:23;;;;;;;26.55;12.93;;;31.30;99.90;;;;;;5063031;28;20071;-66
2023/08/08 04:31:49;;;;;;;25.15;12.82;;;31.30;99.90;;;;;;5064634;28;20027;-66
2023/08/08 04:34:17;;;;;;;33.60;12.70;;;31.40;99.90;;;;;;5062677;28;20385;-68
2023/08/08 04:36:43;;;;;;;19.75;11.30;;;31.50;99.90;;;;;;5062656;28;20025;-67
2023/08/08 04:39:10;;;;;;;20.95;11.60;;;31.50;99.90;;;;;;5064347;28;20536;-66
2023/08/08 04:41:36;;;;;;;21.02;13.05;;;31.60;99.90;;;;;;5065222;28;20036;-68
2023/08/08 04:44:03;;;;;;;26.13;15.35;;;31.60;99.90;;;;;;5062725;28;20059;-67
2023/08/08 04:46:29;;;;;;;24.52;14.80;;;31.60;99.90;;;;;;5059778;28;20504;-65
2023/08/08 04:48:56;;;;;;;22.17;12.15;;;31.50;99.90;;;;;;5063569;28;20032;-66
2023/08/08 04:51:22;;;;;;;35.00;19.92;;;31.50;99.90;;;;;;5063088;28;20032;-67
2023/08/08 04:53:49;;;;;;;27.58;16.90;;;31.50;99.90;;;;;;5060325;28;20468;-68
2023/08/08 04:56:15;;;;;;;22.33;13.52;;;31.50;99.90;;;;;;5064533;28;20476;-66
2023/08/08 04:58:41;;;;;;;35.33;19.02;;;31.50;99.90;;;;;;5062574;28;20024;-67
2023/08/08 05:01:11;;;;;;;29.75;15.68;;;31.60;99.90;;;;;;5063887;28;20104;-65
2023/08/08 05:03:38;;;;;;;25.58;14.38;;;31.70;99.90;;;;;;5062548;28;20025;-71
2023/08/08 05:06:04;;;;;;;22.40;12.35;;;31.80;99.90;;;;;;5062079;28;20381;-66
2023/08/08 05:08:31;;;;;;;22.38;11.40;;;32.00;99.90;;;;;;5063900;28;20016;-63
2023/08/08 05:10:57;;;;;;;23.85;12.15;;;32.00;99.90;;;;;;5062587;28;20045;-65
2023/08/08 05:13:24;;;;;;;18.02;11.35;;;32.20;99.90;;;;;;5062110;28;20021;-67
2023/08/08 05:15:50;;;;;;;18.92;11.23;;;32.30;99.90;;;;;;5056757;28;20469;-64
2023/08/08 05:18:17;;;;;;;15.07;10.02;;;32.40;99.90;;;;;;5064239;28;20048;-68
2023/08/08 05:20:43;;;;;;;19.73;10.75;;;32.50;99.90;;;;;;5056812;28;20052;-67
2023/08/08 05:23:10;;;;;;;15.45;10.25;;;32.60;99.90;;;;;;5053035;28;20049;-65
2023/08/08 05:25:36;;;;;;;16.63;11.23;;;32.50;99.90;;;;;;5052955;28;20126;-64
2023/08/08 05:28:03;;;;;;;21.02;11.10;;;32.70;99.90;;;;;;5052936;28;20021;-65
2023/08/08 05:30:29;;;;;;;17.60;10.48;;;32.80;99.90;;;;;;5053009;28;20017;-65
2023/08/08 05:32:56;;;;;;;19.83;11.35;;;32.90;99.90;;;;;;5052847;28;20489;-65
2023/08/08 05:35:22;;;;;;;20.10;11.25;;;33.00;99.90;;;;;;5052714;28;20033;-64
2023/08/08 05:37:49;;;;;;;19.90;10.85;;;33.00;99.90;;;;;;5060320;28;20112;-65
2023/08/08 05:40:15;;;;;;;14.68;9.40;;;33.00;99.90;;;;;;5062447;28;20017;-65
2023/08/08 05:42:42;;;;;;;15.68;9.90;;;32.90;99.90;;;;;;5063083;28;20477;-66
2023/08/08 05:45:09;;;;;;;15.68;10.10;;;32.90;99.90;;;;;;5063095;28;20154;-65
2023/08/08 05:47:35;;;;;;;28.65;16.50;;;33.00;99.90;;;;;;5063843;28;20025;-65
2023/08/08 05:50:02;;;;;;;24.08;11.65;;;33.20;99.90;;;;;;5061944;28;20021;-65
2023/08/08 05:52:29;;;;;;;24.73;11.52;;;33.20;99.90;;;;;;5062343;28;20135;-65
2023/08/08 05:54:55;;;;;;;18.05;11.45;;;33.20;99.90;;;;;;5063646;28;20013;-65
2023/08/08 05:57:22;;;;;;;19.38;11.52;;;33.10;99.90;;;;;;5062825;28;20017;-65
2023/08/08 05:59:49;;;;;;;20.52;10.05;;;33.00;99.90;;;;;;5067236;28;20108;-65
2023/08/08 06:02:16;;;;;;;15.18;10.55;;;32.90;99.90;;;;;;5065186;28;20029;-64
2023/08/08 06:04:43;;;;;;;14.65;9.55;;;32.80;99.90;;;;;;5066799;28;20488;-65
2023/08/08 06:07:10;;;;;;;17.55;10.63;;;32.80;99.90;;;;;;5066196;28;20029;-64
2023/08/08 06:09:39;;;;;;;20.45;12.20;;;32.70;99.90;;;;;;5065011;28;20175;-67
2023/08/08 06:12:06;;;;;;;21.02;11.88;;;32.60;99.90;;;;;;5067632;28;20507;-65
2023/08/08 06:14:32;;;;;;;16.40;10.95;;;32.60;99.90;;;;;;5064180;28;20051;-68
2023/08/08 06:16:59;;;;;;;16.35;10.88;;;32.60;99.90;;;;;;5063994;28;20020;-65
2023/08/08 06:19:26;;;;;;;20.13;11.38;;;32.60;99.90;;;;;;5064373;28;20388;-66
2023/08/08 06:21:53;;;;;;;17.83;12.30;;;32.70;99.90;;;;;;5065873;28;20026;-66
2023/08/08 06:24:19;;;;;;;17.50;11.32;;;32.80;99.90;;;;;;5075763;28;20492;-64
2023/08/08 06:26:46;;;;;;;16.77;10.20;;;32.90;99.90;;;;;;5068532;28;20032;-65
2023/08/08 06:29:13;;;;;;;19.50;11.40;;;33.00;99.90;;;;;;5066391;28;20481;-67
2023/08/08 06:31:41;;;;;;;21.15;11.73;;;33.00;99.90;;;;;;5064873;28;20057;-65
2023/08/08 06:34:07;;;;;;;20.20;12.40;;;33.00;99.90;;;;;;5066068;28;20017;-63
2023/08/08 06:36:34;;;;;;;18.83;10.27;;;33.10;99.90;;;;;;5066560;28;20041;-70
2023/08/08 06:39:00;;;;;;;18.95;10.40;;;33.10;99.90;;;;;;5064888;28;20027;-65
2023/08/08 06:41:27;;;;;;;13.07;9.73;;;33.20;99.90;;;;;;5064911;28;20083;-67
2023/08/08 06:43:53;;;;;;;14.73;9.93;;;33.20;99.90;;;;;;5066217;28;20021;-67
2023/08/08 06:46:20;;;;;;;17.77;11.57;;;33.20;99.90;;;;;;5064815;28;20092;-67
2023/08/08 06:48:47;;;;;;;15.35;11.25;;;33.20;99.90;;;;;;5065832;28;20373;-64
2023/08/08 06:51:14;;;;;;;26.85;11.32;;;33.30;99.90;;;;;;5066523;28;20028;-64
2023/08/08 06:53:40;;;;;;;22.85;11.07;;;33.30;99.90;;;;;;5064697;28;20075;-63
2023/08/08 06:56:07;;;;;;;14.63;10.48;;;33.20;99.90;;;;;;5065535;28;20073;-66
2023/08/08 06:58:33;;;;;;;20.80;10.23;;;33.00;99.90;;;;;;5066490;28;20383;-67
2023/08/08 07:01:00;;;;;;;22.15;10.13;;;32.80;99.90;;;;;;5064725;28;20077;-65
2023/08/08 07:03:26;;;;;;;22.17;10.07;;;32.60;99.90;;;;;;5065789;28;20017;-63
2023/08/08 07:05:53;;;;;;;15.68;9.75;;;32.40;99.90;;;;;;5066023;28;20156;-63
2023/08/08 07:08:20;;;;;;;15.80;9.27;;;32.30;99.90;;;;;;5064259;28;20017;-64
2023/08/08 07:10:46;;;;;;;25.80;14.30;;;32.20;99.90;;;;;;5065210;28;20059;-64
2023/08/08 07:13:15;;;;;;;23.25;13.93;;;32.00;99.90;;;;;;5066711;28;20102;-63
2023/08/08 07:15:42;;;;;;;20.58;12.70;;;32.00;99.90;;;;;;5065084;28;20116;-63
2023/08/08 07:18:09;;;;;;;22.38;10.90;;;31.90;99.90;;;;;;5065490;28;20147;-63
2023/08/08 07:20:35;;;;;;;18.13;11.43;;;31.80;99.90;;;;;;5066114;28;20040;-64
2023/08/08 07:23:02;;;;;;;29.25;16.00;;;31.70;99.90;;;;;;5064553;28;20023;-63
2023/08/08 07:25:29;;;;;;;21.13;12.57;;;31.50;99.90;;;;;;5056669;28;20028;-62
2023/08/08 07:27:55;;;;;;;22.73;13.30;;;31.30;99.90;;;;;;5055443;28;20441;-64
2023/08/08 07:30:22;;;;;;;24.83;12.90;;;31.30;99.90;;;;;;5055242;28;20033;-65
2023/08/08 07:32:48;;;;;;;20.17;12.85;;;31.20;99.90;;;;;;5063561;28;20103;-64
2023/08/08 07:35:15;;;;;;;24.20;12.30;;;31.30;99.90;;;;;;5064646;28;20021;-64
2023/08/08 07:37:43;;;;;;;31.85;13.70;;;31.40;99.90;;;;;;5065305;28;20059;-64
2023/08/08 07:40:20;;;;;;;25.70;12.38;;;31.50;99.90;;;;;;5063338;28;20020;-65
2023/08/08 07:42:47;;;;;;;28.63;17.08;;;31.50;99.90;;;;;;5062380;28;20513;-63
2023/08/08 07:45:14;;;;;;;38.05;22.38;;;31.60;99.90;;;;;;5064512;28;20111;-64
2023/08/08 07:47:41;;;;;;;27.02;16.33;;;31.70;99.90;;;;;;5064782;28;20021;-64
2023/08/08 07:50:08;;;;;;;23.95;14.75;;;31.70;99.90;;;;;;5063751;28;20028;-63
2023/08/08 07:52:35;;;;;;;22.77;13.88;;;31.70;99.90;;;;;;5065578;28;20037;-63
2023/08/08 07:55:03;;;;;;;26.50;14.82;;;31.70;99.90;;;;;;5063592;28;20023;-64
2023/08/08 07:57:34;;;;;;;28.23;17.35;;;31.80;99.90;;;;;;5063869;28;20100;-66
2023/08/08 08:00:07;;;;;;;33.72;14.98;;;31.80;99.90;;;;;;5064087;28;20040;-64
2023/08/08 08:02:34;;;;;;;23.02;14.20;;;32.00;99.90;;;;;;5063865;28;20565;-65
2023/08/08 08:05:00;;;;;;;22.88;12.88;;;32.00;99.90;;;;;;5071456;28;20154;-63
2023/08/08 08:07:27;;;;;;;19.70;11.77;;;32.20;99.90;;;;;;5072946;28;20468;-64
2023/08/08 08:09:53;;;;;;;17.52;10.88;;;32.40;99.90;;;;;;5074197;28;20392;-64
2023/08/08 08:12:20;;;;;;;24.48;10.55;;;32.50;99.90;;;;;;5073803;28;20047;-63
2023/08/08 08:14:46;;;;;;;17.75;11.23;;;32.60;99.90;;;;;;5073966;28;20023;-63
2023/08/08 08:17:13;;;;;;;24.90;12.30;;;32.70;99.90;;;;;;5070030;28;20415;-62
2023/08/08 08:19:42;;;;;;;22.48;12.23;;;32.70;99.90;;;;;;5063896;28;20012;-65
2023/08/08 08:22:09;;;;;;;25.85;16.23;;;32.70;99.90;;;;;;5062137;28;20235;-64
2023/08/08 08:24:35;;;;;;;16.83;10.38;;;32.60;99.90;;;;;;5064033;28;20021;-64
2023/08/08 08:27:02;;;;;;;15.88;10.57;;;32.70;99.90;;;;;;5064094;28;20025;-64
2023/08/08 08:29:28;;;;;;;15.10;9.52;;;32.70;99.90;;;;;;5062325;28;20021;-64
2023/08/08 08:31:55;;;;;;;16.20;10.07;;;32.80;99.90;;;;;;5063817;28;20028;-67
2023/08/08 08:34:21;;;;;;;19.85;10.45;;;32.90;99.90;;;;;;5063819;28;20504;-67
2023/08/08 08:36:48;;;;;;;18.25;10.25;;;32.90;99.90;;;;;;5060835;28;20481;-63
2023/08/08 08:39:14;;;;;;;15.48;10.40;;;32.90;99.90;;;;;;5063169;28;20358;-63
2023/08/08 08:41:41;;;;;;;18.50;10.68;;;33.00;99.90;;;;;;5063596;28;20029;-64
2023/08/08 08:44:08;;;;;;;15.43;10.07;;;33.00;99.90;;;;;;5062202;28;20013;-64
2023/08/08 08:46:37;;;;;;;15.32;9.38;;;33.00;99.90;;;;;;5063911;28;20028;-65
2023/08/08 08:49:08;;;;;;;21.58;12.05;;;33.00;99.90;;;;;;5063771;28;20025;-65
2023/08/08 08:51:36;;;;;;;19.98;10.75;;;33.00;99.90;;;;;;5062561;28;20037;-65
2023/08/08 08:54:04;;;;;;;19.15;11.00;;;32.90;99.90;;;;;;5062864;28;20306;-64
2023/08/08 08:56:32;;;;;;;21.02;11.75;;;32.90;99.90;;;;;;5064076;28;20526;-65
2023/08/08 08:58:59;;;;;;;19.42;10.00;;;32.90;99.90;;;;;;5062758;28;20096;-65
2023/08/08 09:01:28;;;;;;;13.85;8.82;;;33.00;99.90;;;;;;5061225;28;20637;-65
2023/08/08 09:03:54;;;;;;;11.80;7.78;;;33.00;99.90;;;;;;5062148;28;20028;-65
2023/08/08 09:06:23;;;;;;;14.13;8.00;;;33.00;99.90;;;;;;5062166;28;20048;-64
2023/08/08 09:08:49;;;;;;;15.63;7.85;;;33.10;99.90;;;;;;5060869;28;20082;-65
2023/08/08 09:11:16;;;;;;;11.40;7.75;;;33.10;99.90;;;;;;5062288;28;20040;-65
2023/08/08 09:13:42;;;;;;;16.52;9.98;;;33.20;99.90;;;;;;5062751;28;20029;-65
2023/08/08 09:16:11;;;;;;;13.93;9.50;;;33.10;99.90;;;;;;5061399;28;20079;-65
2023/08/08 09:18:38;;;;;;;19.85;10.07;;;33.20;99.90;;;;;;5062884;28;20361;-66
2023/08/08 09:21:05;;;;;;;19.35;9.82;;;33.10;99.90;;;;;;5063976;28;20029;-65
2023/08/08 09:23:32;;;;;;;36.83;20.95;;;33.20;99.90;;;;;;5062288;28;20020;-65
2023/08/08 09:25:58;;;;;;;22.42;12.02;;;33.20;99.90;;;;;;5062901;28;20032;-64
2023/08/08 09:28:26;;;;;;;36.22;18.95;;;33.20;99.90;;;;;;5061200;28;20029;-63
2023/08/08 09:30:53;;;;;;;21.70;12.18;;;33.00;99.90;;;;;;5057342;28;20033;-63
2023/08/08 09:33:19;;;;;;;151.27;109.30;;;33.00;99.90;;;;;;5061915;28;20450;-65
2023/08/08 09:35:46;;;;;;;20.65;13.93;;;32.90;99.90;;;;;;5059825;28;20074;-62
2023/08/08 09:38:12;;;;;;;51.90;29.20;;;32.90;99.90;;;;;;5063697;28;20021;-61
2023/08/08 09:40:40;;;;;;;71.63;50.67;;;32.70;99.90;;;;;;5066241;28;20021;-64
2023/08/08 09:43:08;;;;;;;32.95;20.80;;;32.60;99.90;;;;;;5071083;28;20109;-64
2023/08/08 09:45:37;;;;;;;35.15;22.63;;;32.60;99.90;;;;;;5066078;28;20055;-63
2023/08/08 09:48:06;;;;;;;22.30;11.43;;;32.70;99.90;;;;;;5068499;28;20048;-62
2023/08/08 09:50:34;;;;;;;18.25;10.43;;;32.70;99.90;;;;;;5063933;28;20025;-63
2023/08/08 09:53:03;;;;;;;26.60;13.23;;;32.70;99.90;;;;;;5066099;28;20086;-64
2023/08/08 09:55:30;;;;;;;20.10;11.23;;;32.70;99.90;;;;;;5063143;28;20489;-64
2023/08/08 09:58:00;;;;;;;23.23;12.70;;;32.60;99.90;;;;;;5060972;28;20025;-64
2023/08/08 10:00:28;;;;;;;21.98;10.90;;;32.50;99.90;;;;;;5062210;28;20021;-62
2023/08/08 10:02:55;;;;;;;19.33;10.85;;;32.40;99.90;;;;;;5060879;28;20233;-65
2023/08/08 10:05:23;;;;;;;25.50;11.30;;;32.30;99.90;;;;;;5061633;28;20108;-64
2023/08/08 10:07:49;;;;;;;23.20;11.93;;;32.20;99.90;;;;;;5061585;28;20080;-64
2023/08/08 10:10:18;;;;;;;30.80;12.75;;;32.30;99.90;;;;;;5060827;28;20017;-64
2023/08/08 10:12:46;;;;;;;106.47;74.03;;;32.30;99.90;;;;;;5061841;28;20060;-64
2023/08/08 10:20:49;;;;;;;25.98;14.98;;;32.30;99.90;;;;;;5070092;28;20412;-64
2023/08/08 10:23:17;;;;;;;30.23;17.73;;;32.00;99.90;;;;;;5060175;28;20108;-64
2023/08/08 10:25:48;;;;;;;29.40;13.52;;;32.00;99.90;;;;;;5055924;28;20018;-66
2023/08/08 10:28:18;;;;;;;60.95;42.30;;;32.00;99.90;;;;;;5059541;28;20512;-67
2023/08/08 10:30:46;;;;;;;39.50;20.85;;;32.00;99.90;;;;;;5038497;28;20233;-65
2023/08/08 10:33:24;;;;;;;38.75;18.08;;;32.00;99.90;;;;;;5040283;28;20076;-66
2023/08/08 10:36:08;;;;;;;34.95;20.52;;;32.00;99.90;;;;;;5044177;28;20091;-68
2023/08/08 10:38:48;;;;;;;37.97;17.75;;;32.00;99.90;;;;;;5036873;28;20069;-67
2023/08/08 10:41:17;;;;;;;94.05;21.30;;;32.00;99.90;;;;;;5040318;28;20029;-68
2023/08/08 10:43:54;;;;;;;45.30;18.73;;;32.00;99.90;;;;;;5036843;28;20374;-73
2023/08/08 10:46:41;;;;;;;39.30;16.27;;;32.00;99.90;;;;;;5030603;28;20068;-70
2023/08/08 10:49:08;;;;;;;28.63;15.38;;;31.90;99.90;;;;;;5040776;28;20037;-68
2023/08/08 10:51:38;;;;;;;38.17;18.65;;;31.90;99.90;;;;;;5042185;28;20103;-68
2023/08/08 10:54:27;;;;;;;34.17;17.25;;;31.90;99.90;;;;;;5036378;28;20051;-69
2023/08/08 10:56:55;;;;;;;39.72;18.08;;;31.90;99.90;;;;;;5039448;28;20037;-68
2023/08/08 10:59:26;;;;;;;35.78;18.13;;;31.80;99.90;;;;;;5038870;28;20032;-72
2023/08/08 11:01:56;;;;;;;38.95;18.10;;;31.70;99.90;;;;;;5038098;28;20017;-66
2023/08/08 11:04:25;;;;;;;39.50;21.35;;;31.70;99.90;;;;;;5038060;28;20045;-69
2023/08/08 11:06:54;;;;;;;202.63;135.10;;;31.70;99.90;;;;;;5037671;28;20409;-67
2023/08/08 11:09:21;;;;;;;57.80;28.52;;;31.70;99.90;;;;;;5037321;28;20409;-68
2023/08/08 11:11:48;;;;;;;94.18;61.15;;;31.60;99.90;;;;;;5042298;28;20040;-67
2023/08/08 11:14:17;;;;;;;46.85;28.85;;;31.60;99.90;;;;;;5038197;28;20108;-69
2023/08/08 11:16:45;;;;;;;41.92;18.55;;;31.60;99.90;;;;;;5037889;28;20033;-69
2023/08/08 11:19:13;;;;;;;42.55;20.20;;;31.60;99.90;;;;;;5034777;28;20045;-68
2023/08/08 11:21:42;;;;;;;28.00;16.45;;;31.60;99.90;;;;;;5036636;28;20101;-69
2023/08/08 11:24:09;;;;;;;39.88;16.40;;;31.50;99.90;;;;;;5040892;28;20105;-74
2023/08/08 11:26:37;;;;;;;28.30;14.77;;;31.40;99.90;;;;;;5038193;28;20155;-75
2023/08/08 11:29:06;;;;;;;31.92;15.38;;;31.40;99.90;;;;;;5039032;28;20021;-68
2023/08/08 11:31:33;;;;;;;28.58;15.38;;;31.40;99.90;;;;;;5029784;28;20026;-71
2023/08/08 11:34:00;;;;;;;28.27;14.18;;;31.40;99.90;;;;;;5025742;28;20022;-70
2023/08/08 11:36:30;;;;;;;27.90;14.32;;;31.40;99.90;;;;;;5025343;28;20040;-71
2023/08/08 11:38:59;;;;;;;28.00;13.77;;;31.30;99.90;;;;;;5026700;28;20100;-72
2023/08/08 11:41:26;;;;;;;25.55;12.95;;;31.30;99.90;;;;;;5026260;28;20017;-70
2023/08/08 11:43:53;;;;;;;22.40;13.13;;;31.20;99.90;;;;;;5024482;28;20037;-69
2023/08/08 11:46:24;;;;;;;28.60;14.55;;;31.20;99.90;;;;;;5020373;28;20019;-70
2023/08/08 11:48:51;;;;;;;32.77;14.50;;;31.10;99.90;;;;;;5024199;28;20287;-68
2023/08/08 11:51:17;;;;;;;31.88;14.77;;;31.10;99.90;;;;;;5022828;28;20042;-69
2023/08/08 11:53:53;;;;;;;31.38;14.23;;;31.10;99.90;;;;;;5025204;28;20028;-68
2023/08/08 11:56:21;;;;;;;25.35;13.60;;;31.10;99.90;;;;;;5020542;28;20034;-67
2023/08/08 11:58:52;;;;;;;31.50;14.15;;;31.10;99.90;;;;;;5015993;28;20022;-70
2023/08/08 12:01:23;;;;;;;30.30;13.73;;;31.10;99.90;;;;;;5016677;28;20022;-71
2023/08/08 12:03:49;;;;;;;29.25;13.98;;;31.10;99.90;;;;;;5016110;28;20022;-69
2023/08/08 12:06:17;;;;;;;26.85;13.63;;;31.00;99.90;;;;;;5014566;28;20023;-69
2023/08/08 12:08:45;;;;;;;26.23;14.07;;;31.00;99.90;;;;;;5006264;28;20034;-70
2023/08/08 12:11:12;;;;;;;23.05;12.77;;;31.00;99.90;;;;;;4996252;28;20026;-70
2023/08/08 12:13:42;;;;;;;37.70;13.27;;;30.90;99.90;;;;;;4996077;28;20038;-69
2023/08/08 12:16:10;;;;;;;22.92;13.38;;;30.90;99.90;;;;;;4996230;28;20038;-68
2023/08/08 12:18:38;;;;;;;30.95;16.23;;;30.90;99.90;;;;;;4995931;28;20026;-70
2023/08/08 12:21:08;;;;;;;37.33;15.93;;;30.90;99.90;;;;;;4997163;28;20038;-69
2023/08/08 12:23:35;;;;;;;34.60;15.85;;;30.90;99.90;;;;;;5015101;28;20018;-70
2023/08/08 12:26:05;;;;;;;29.48;14.80;;;30.80;99.90;;;;;;5015485;28;20021;-69
2023/08/08 12:28:32;;;;;;;26.30;13.70;;;30.80;99.90;;;;;;5015391;28;20061;-67
2023/08/08 12:30:59;;;;;;;25.00;12.98;;;30.80;99.90;;;;;;5015667;28;20054;-70
2023/08/08 12:33:25;;;;;;;27.45;14.52;;;30.70;99.90;;;;;;5015414;28;20053;-69
2023/08/08 12:35:52;;;;;;;27.23;13.10;;;30.70;99.90;;;;;;5015584;28;20037;-71
2023/08/08 12:38:19;;;;;;;28.13;15.60;;;30.70;99.90;;;;;;5021566;28;20031;-70
2023/08/08 12:40:46;;;;;;;23.40;13.93;;;30.70;99.90;;;;;;5024918;28;20017;-70
2023/08/08 12:43:13;;;;;;;30.60;14.45;;;30.70;99.90;;;;;;5025502;28;20025;-70
2023/08/08 12:45:40;;;;;;;23.02;13.48;;;30.60;99.90;;;;;;5024461;28;20018;-72
2023/08/08 12:48:07;;;;;;;31.40;15.70;;;30.50;99.90;;;;;;5024663;28;20018;-70
2023/08/08 12:50:34;;;;;;;30.63;13.98;;;30.50;99.90;;;;;;5023430;28;20429;-69